Terminal Aerodrome Forecast
Issued by NWS

Home | Current Version | Previous Version | Text Only | Print | Product List | Glossary On
Versions: 1 2 3 4 5 6 7 8 9 10 11 12 13 14 15
413
FTUS44 KMAF 052330
TAFHOB
TAF
KHOB 052330Z 0600/0624 32015G20KT P6SM BKN250
     FM060100 32009KT P6SM SKC=

USA.gov is the U.S. government's official web portal to all federal, state and local government web resources and services.